sensor_id;sensor_type;location;lat;lon;timestamp;temperature;humidity
43647;DHT22;56152;49.996;18.980;2023-04-24T00:02:54;9.80;74.80
43647;DHT22;56152;49.996;18.980;2023-04-24T00:07:57;9.80;74.90
43647;DHT22;56152;49.996;18.980;2023-04-24T00:13:01;9.70;75.00
43647;DHT22;56152;49.996;18.980;2023-04-24T00:18:03;9.70;75.00
43647;DHT22;56152;49.996;18.980;2023-04-24T00:23:08;9.80;74.80
43647;DHT22;56152;49.996;18.980;2023-04-24T00:28:12;9.80;74.60
43647;DHT22;56152;49.996;18.980;2023-04-24T00:33:14;9.80;74.70
43647;DHT22;56152;49.996;18.980;2023-04-24T00:38:16;9.90;74.50
43647;DHT22;56152;49.996;18.980;2023-04-24T00:43:19;10.10;74.00
43647;DHT22;56152;49.996;18.980;2023-04-24T00:48:21;10.00;73.80
43647;DHT22;56152;49.996;18.980;2023-04-24T00:53:24;10.20;73.40
43647;DHT22;56152;49.996;18.980;2023-04-24T00:58:28;10.50;72.10
43647;DHT22;56152;49.996;18.980;2023-04-24T01:03:31;10.80;71.00
43647;DHT22;56152;49.996;18.980;2023-04-24T01:08:34;10.90;70.50
43647;DHT22;56152;49.996;18.980;2023-04-24T01:13:40;10.90;70.40
43647;DHT22;56152;49.996;18.980;2023-04-24T01:18:43;10.80;70.60
43647;DHT22;56152;49.996;18.980;2023-04-24T01:23:51;10.70;70.80
43647;DHT22;56152;49.996;18.980;2023-04-24T01:28:53;10.70;71.10
43647;DHT22;56152;49.996;18.980;2023-04-24T01:33:57;10.60;71.30
43647;DHT22;56152;49.996;18.980;2023-04-24T01:39:02;10.50;71.50
43647;DHT22;56152;49.996;18.980;2023-04-24T01:44:05;10.40;71.60
43647;DHT22;56152;49.996;18.980;2023-04-24T01:49:06;10.40;71.60
43647;DHT22;56152;49.996;18.980;2023-04-24T01:54:10;10.30;71.50
43647;DHT22;56152;49.996;18.980;2023-04-24T01:59:13;10.30;71.60
43647;DHT22;56152;49.996;18.980;2023-04-24T02:04:17;10.20;71.90
43647;DHT22;56152;49.996;18.980;2023-04-24T02:09:21;10.00;72.10
43647;DHT22;56152;49.996;18.980;2023-04-24T02:14:25;9.90;72.60
43647;DHT22;56152;49.996;18.980;2023-04-24T02:19:28;9.80;72.80
43647;DHT22;56152;49.996;18.980;2023-04-24T02:24:33;9.80;72.90
43647;DHT22;56152;49.996;18.980;2023-04-24T02:29:37;9.80;73.00
43647;DHT22;56152;49.996;18.980;2023-04-24T02:34:40;9.70;73.20
43647;DHT22;56152;49.996;18.980;2023-04-24T02:39:43;9.70;73.60
43647;DHT22;56152;49.996;18.980;2023-04-24T02:44:45;9.60;73.90
43647;DHT22;56152;49.996;18.980;2023-04-24T02:49:47;9.60;74.20
43647;DHT22;56152;49.996;18.980;2023-04-24T02:54:50;9.50;74.30
43647;DHT22;56152;49.996;18.980;2023-04-24T02:59:54;9.50;74.70
43647;DHT22;56152;49.996;18.980;2023-04-24T03:04:56;9.60;74.80
43647;DHT22;56152;49.996;18.980;2023-04-24T03:10:00;9.60;74.90
43647;DHT22;56152;49.996;18.980;2023-04-24T03:15:02;9.60;74.80
43647;DHT22;56152;49.996;18.980;2023-04-24T03:20:06;9.60;74.80
43647;DHT22;56152;49.996;18.980;2023-04-24T03:25:13;9.60;74.90
43647;DHT22;56152;49.996;18.980;2023-04-24T03:30:16;9.50;75.00
43647;DHT22;56152;49.996;18.980;2023-04-24T03:35:18;9.50;75.10
43647;DHT22;56152;49.996;18.980;2023-04-24T03:40:26;9.50;75.20
43647;DHT22;56152;49.996;18.980;2023-04-24T03:45:30;9.50;75.20
43647;DHT22;56152;49.996;18.980;2023-04-24T03:50:33;9.60;75.30
43647;DHT22;56152;49.996;18.980;2023-04-24T03:55:37;9.60;75.50
43647;DHT22;56152;49.996;18.980;2023-04-24T04:00:39;9.60;76.30
43647;DHT22;56152;49.996;18.980;2023-04-24T04:05:41;9.60;75.80
43647;DHT22;56152;49.996;18.980;2023-04-24T04:10:45;9.60;76.00
43647;DHT22;56152;49.996;18.980;2023-04-24T04:15:47;9.70;76.10
43647;DHT22;56152;49.996;18.980;2023-04-24T04:20:49;9.80;76.00
43647;DHT22;56152;49.996;18.980;2023-04-24T04:25:56;9.90;75.60
43647;DHT22;56152;49.996;18.980;2023-04-24T04:30:58;10.10;75.40
43647;DHT22;56152;49.996;18.980;2023-04-24T04:36:00;10.30;75.20
43647;DHT22;56152;49.996;18.980;2023-04-24T04:41:03;10.60;74.90
43647;DHT22;56152;49.996;18.980;2023-04-24T04:46:10;10.80;74.10
43647;DHT22;56152;49.996;18.980;2023-04-24T04:51:13;11.10;73.90
43647;DHT22;56152;49.996;18.980;2023-04-24T04:56:18;11.30;73.50
43647;DHT22;56152;49.996;18.980;2023-04-24T05:01:23;11.60;73.10
43647;DHT22;56152;49.996;18.980;2023-04-24T05:06:25;11.90;72.70
43647;DHT22;56152;49.996;18.980;2023-04-24T05:11:29;12.40;72.20
43647;DHT22;56152;49.996;18.980;2023-04-24T05:16:31;13.00;70.90
43647;DHT22;56152;49.996;18.980;2023-04-24T05:21:33;13.40;70.40
43647;DHT22;56152;49.996;18.980;2023-04-24T05:26:37;13.90;69.50
43647;DHT22;56152;49.996;18.980;2023-04-24T05:31:39;14.30;67.60
43647;DHT22;56152;49.996;18.980;2023-04-24T05:36:43;14.60;66.90
43647;DHT22;56152;49.996;18.980;2023-04-24T05:41:46;14.80;66.30
43647;DHT22;56152;49.996;18.980;2023-04-24T05:46:51;15.20;65.40
43647;DHT22;56152;49.996;18.980;2023-04-24T05:51:56;15.40;64.90
43647;DHT22;56152;49.996;18.980;2023-04-24T05:57:01;15.80;64.20
43647;DHT22;56152;49.996;18.980;2023-04-24T06:02:07;16.10;63.10
43647;DHT22;56152;49.996;18.980;2023-04-24T06:07:10;16.70;62.40
43647;DHT22;56152;49.996;18.980;2023-04-24T06:12:14;17.10;60.90
43647;DHT22;56152;49.996;18.980;2023-04-24T06:17:16;17.30;61.00
43647;DHT22;56152;49.996;18.980;2023-04-24T06:22:19;17.60;59.20
43647;DHT22;56152;49.996;18.980;2023-04-24T06:27:24;17.80;59.00
43647;DHT22;56152;49.996;18.980;2023-04-24T06:32:27;18.20;58.30
43647;DHT22;56152;49.996;18.980;2023-04-24T06:37:31;18.70;57.20
43647;DHT22;56152;49.996;18.980;2023-04-24T06:42:37;19.10;56.60
43647;DHT22;56152;49.996;18.980;2023-04-24T06:47:41;19.50;55.70
43647;DHT22;56152;49.996;18.980;2023-04-24T06:52:44;19.80;54.60
43647;DHT22;56152;49.996;18.980;2023-04-24T06:57:49;20.20;53.80
43647;DHT22;56152;49.996;18.980;2023-04-24T07:02:51;20.20;53.40
43647;DHT22;56152;49.996;18.980;2023-04-24T07:07:52;20.00;53.10
43647;DHT22;56152;49.996;18.980;2023-04-24T07:12:59;19.90;53.20
43647;DHT22;56152;49.996;18.980;2023-04-24T07:18:02;19.80;53.60
43647;DHT22;56152;49.996;18.980;2023-04-24T07:23:08;19.70;53.30
43647;DHT22;56152;49.996;18.980;2023-04-24T07:28:12;19.70;54.00
43647;DHT22;56152;49.996;18.980;2023-04-24T07:33:14;19.60;53.90
43647;DHT22;56152;49.996;18.980;2023-04-24T07:38:19;19.40;53.60
43647;DHT22;56152;49.996;18.980;2023-04-24T07:43:24;19.70;53.10
43647;DHT22;56152;49.996;18.980;2023-04-24T07:48:26;20.00;51.70
43647;DHT22;56152;49.996;18.980;2023-04-24T07:53:28;20.00;51.20
43647;DHT22;56152;49.996;18.980;2023-04-24T07:58:32;20.20;51.50
43647;DHT22;56152;49.996;18.980;2023-04-24T08:03:34;20.60;51.10
43647;DHT22;56152;49.996;18.980;2023-04-24T08:08:37;21.10;50.30
43647;DHT22;56152;49.996;18.980;2023-04-24T08:13:41;21.80;48.60
43647;DHT22;56152;49.996;18.980;2023-04-24T08:18:46;22.30;48.90
43647;DHT22;56152;49.996;18.980;2023-04-24T08:23:49;22.60;46.70
43647;DHT22;56152;49.996;18.980;2023-04-24T08:28:55;22.60;47.60
43647;DHT22;56152;49.996;18.980;2023-04-24T08:33:57;22.60;47.30
43647;DHT22;56152;49.996;18.980;2023-04-24T08:39:02;22.50;47.20
43647;DHT22;56152;49.996;18.980;2023-04-24T08:44:09;22.00;47.60
43647;DHT22;56152;49.996;18.980;2023-04-24T08:49:12;22.10;48.10
43647;DHT22;56152;49.996;18.980;2023-04-24T08:54:18;22.20;47.60
43647;DHT22;56152;49.996;18.980;2023-04-24T08:59:22;22.30;47.80
43647;DHT22;56152;49.996;18.980;2023-04-24T09:04:25;22.30;48.40
43647;DHT22;56152;49.996;18.980;2023-04-24T09:09:30;22.10;48.50
43647;DHT22;56152;49.996;18.980;2023-04-24T09:14:38;22.10;48.50
43647;DHT22;56152;49.996;18.980;2023-04-24T09:19:45;22.30;48.00
43647;DHT22;56152;49.996;18.980;2023-04-24T09:24:48;22.40;48.10
43647;DHT22;56152;49.996;18.980;2023-04-24T09:29:56;22.30;47.90
43647;DHT22;56152;49.996;18.980;2023-04-24T09:35:06;22.40;47.70
43647;DHT22;56152;49.996;18.980;2023-04-24T09:40:11;22.50;47.70
43647;DHT22;56152;49.996;18.980;2023-04-24T09:45:19;22.10;47.70
43647;DHT22;56152;49.996;18.980;2023-04-24T09:50:21;21.60;48.20
43647;DHT22;56152;49.996;18.980;2023-04-24T09:55:23;21.00;49.40
43647;DHT22;56152;49.996;18.980;2023-04-24T10:00:28;20.30;50.10
43647;DHT22;56152;49.996;18.980;2023-04-24T10:05:32;19.90;50.70
43647;DHT22;56152;49.996;18.980;2023-04-24T10:10:38;19.50;51.10
43647;DHT22;56152;49.996;18.980;2023-04-24T10:15:43;19.40;51.80
43647;DHT22;56152;49.996;18.980;2023-04-24T10:20:47;19.40;52.10
43647;DHT22;56152;49.996;18.980;2023-04-24T10:25:49;19.50;51.70
43647;DHT22;56152;49.996;18.980;2023-04-24T10:30:55;19.70;52.30
43647;DHT22;56152;49.996;18.980;2023-04-24T10:36:03;20.30;52.20
43647;DHT22;56152;49.996;18.980;2023-04-24T10:41:09;20.70;51.00
43647;DHT22;56152;49.996;18.980;2023-04-24T10:46:20;21.00;51.60
43647;DHT22;56152;49.996;18.980;2023-04-24T10:51:23;21.30;50.40
43647;DHT22;56152;49.996;18.980;2023-04-24T10:56:26;21.00;50.60
43647;DHT22;56152;49.996;18.980;2023-04-24T11:01:31;20.50;50.80
43647;DHT22;56152;49.996;18.980;2023-04-24T11:06:37;19.70;51.80
43647;DHT22;56152;49.996;18.980;2023-04-24T11:11:45;19.30;52.40
43647;DHT22;56152;49.996;18.980;2023-04-24T11:16:53;19.00;53.10
43647;DHT22;56152;49.996;18.980;2023-04-24T11:21:58;18.80;52.90
43647;DHT22;56152;49.996;18.980;2023-04-24T11:27:11;18.50;53.60
43647;DHT22;56152;49.996;18.980;2023-04-24T11:32:26;18.40;53.60
43647;DHT22;56152;49.996;18.980;2023-04-24T11:37:33;17.90;54.00
43647;DHT22;56152;49.996;18.980;2023-04-24T11:42:37;17.70;55.20
43647;DHT22;56152;49.996;18.980;2023-04-24T11:47:41;17.40;55.70
43647;DHT22;56152;49.996;18.980;2023-04-24T11:52:45;17.30;56.80
43647;DHT22;56152;49.996;18.980;2023-04-24T11:57:53;17.20;57.20
43647;DHT22;56152;49.996;18.980;2023-04-24T12:03:06;16.90;57.80
43647;DHT22;56152;49.996;18.980;2023-04-24T12:08:09;16.80;58.70
43647;DHT22;56152;49.996;18.980;2023-04-24T12:13:13;16.60;58.80
43647;DHT22;56152;49.996;18.980;2023-04-24T12:18:16;16.50;59.80
43647;DHT22;56152;49.996;18.980;2023-04-24T12:23:33;16.30;60.60
43647;DHT22;56152;49.996;18.980;2023-04-24T12:28:36;16.30;61.40
43647;DHT22;56152;49.996;18.980;2023-04-24T12:33:50;16.30;61.30
43647;DHT22;56152;49.996;18.980;2023-04-24T12:38:53;16.10;61.90
43647;DHT22;56152;49.996;18.980;2023-04-24T12:43:55;16.10;62.70
43647;DHT22;56152;49.996;18.980;2023-04-24T12:49:05;16.00;63.20
43647;DHT22;56152;49.996;18.980;2023-04-24T12:54:07;15.80;63.90
43647;DHT22;56152;49.996;18.980;2023-04-24T12:59:11;15.40;65.20
43647;DHT22;56152;49.996;18.980;2023-04-24T13:04:16;15.00;67.00
43647;DHT22;56152;49.996;18.980;2023-04-24T13:09:18;14.80;68.30
43647;DHT22;56152;49.996;18.980;2023-04-24T13:14:23;14.60;68.90
43647;DHT22;56152;49.996;18.980;2023-04-24T13:19:27;14.70;69.70
43647;DHT22;56152;49.996;18.980;2023-04-24T13:24:29;14.80;69.60
43647;DHT22;56152;49.996;18.980;2023-04-24T13:29:31;14.80;69.90
43647;DHT22;56152;49.996;18.980;2023-04-24T13:34:38;14.90;70.10
43647;DHT22;56152;49.996;18.980;2023-04-24T13:39:41;14.90;70.50
43647;DHT22;56152;49.996;18.980;2023-04-24T13:44:43;14.90;70.70
43647;DHT22;56152;49.996;18.980;2023-04-24T13:49:50;14.80;70.50
43647;DHT22;56152;49.996;18.980;2023-04-24T13:54:54;14.80;70.70
43647;DHT22;56152;49.996;18.980;2023-04-24T13:59:57;14.80;70.40
43647;DHT22;56152;49.996;18.980;2023-04-24T14:05:04;14.90;70.50
43647;DHT22;56152;49.996;18.980;2023-04-24T14:10:08;15.00;70.80
43647;DHT22;56152;49.996;18.980;2023-04-24T14:15:12;15.20;70.20
43647;DHT22;56152;49.996;18.980;2023-04-24T14:20:17;15.00;70.00
43647;DHT22;56152;49.996;18.980;2023-04-24T14:25:19;14.80;71.90
43647;DHT22;56152;49.996;18.980;2023-04-24T14:30:23;14.70;72.10
43647;DHT22;56152;49.996;18.980;2023-04-24T14:35:42;14.70;72.80
43647;DHT22;56152;49.996;18.980;2023-04-24T14:40:44;14.60;73.60
43647;DHT22;56152;49.996;18.980;2023-04-24T14:45:46;14.40;73.80
43647;DHT22;56152;49.996;18.980;2023-04-24T14:50:50;14.40;74.30
43647;DHT22;56152;49.996;18.980;2023-04-24T14:55:58;14.50;74.20
43647;DHT22;56152;49.996;18.980;2023-04-24T15:01:01;14.70;73.90
43647;DHT22;56152;49.996;18.980;2023-04-24T15:06:08;14.70;73.40
43647;DHT22;56152;49.996;18.980;2023-04-24T15:11:10;14.70;73.10
43647;DHT22;56152;49.996;18.980;2023-04-24T15:16:12;14.60;72.90
43647;DHT22;56152;49.996;18.980;2023-04-24T15:21:16;14.50;73.10
43647;DHT22;56152;49.996;18.980;2023-04-24T15:26:18;14.30;73.50
43647;DHT22;56152;49.996;18.980;2023-04-24T15:31:21;14.20;73.60
43647;DHT22;56152;49.996;18.980;2023-04-24T15:36:25;14.10;74.00
43647;DHT22;56152;49.996;18.980;2023-04-24T15:41:28;14.10;74.20
43647;DHT22;56152;49.996;18.980;2023-04-24T15:46:34;14.00;74.60
43647;DHT22;56152;49.996;18.980;2023-04-24T15:51:39;14.00;74.60
43647;DHT22;56152;49.996;18.980;2023-04-24T15:56:41;13.90;74.80
43647;DHT22;56152;49.996;18.980;2023-04-24T16:01:44;13.70;75.40
43647;DHT22;56152;49.996;18.980;2023-04-24T16:06:48;13.60;75.90
43647;DHT22;56152;49.996;18.980;2023-04-24T16:11:50;13.50;76.50
43647;DHT22;56152;49.996;18.980;2023-04-24T16:16:53;13.40;76.90
43647;DHT22;56152;49.996;18.980;2023-04-24T16:21:59;13.30;77.60
43647;DHT22;56152;49.996;18.980;2023-04-24T16:27:06;13.20;78.50
43647;DHT22;56152;49.996;18.980;2023-04-24T16:32:08;13.10;78.90
43647;DHT22;56152;49.996;18.980;2023-04-24T16:37:12;13.00;79.50
43647;DHT22;56152;49.996;18.980;2023-04-24T16:42:18;12.90;80.50
43647;DHT22;56152;49.996;18.980;2023-04-24T16:47:20;13.00;81.80
43647;DHT22;56152;49.996;18.980;2023-04-24T16:52:25;13.10;81.80
43647;DHT22;56152;49.996;18.980;2023-04-24T16:57:29;13.10;82.10
43647;DHT22;56152;49.996;18.980;2023-04-24T17:02:31;13.00;82.70
43647;DHT22;56152;49.996;18.980;2023-04-24T17:07:36;13.00;82.90
43647;DHT22;56152;49.996;18.980;2023-04-24T17:12:39;13.00;83.00
43647;DHT22;56152;49.996;18.980;2023-04-24T17:17:41;12.90;83.10
43647;DHT22;56152;49.996;18.980;2023-04-24T17:22:47;12.70;83.70
43647;DHT22;56152;49.996;18.980;2023-04-24T17:27:49;12.70;83.90
43647;DHT22;56152;49.996;18.980;2023-04-24T17:32:51;12.70;84.20
43647;DHT22;56152;49.996;18.980;2023-04-24T17:37:54;12.70;84.50
43647;DHT22;56152;49.996;18.980;2023-04-24T17:42:56;12.70;84.70
43647;DHT22;56152;49.996;18.980;2023-04-24T17:47:58;12.70;84.60
43647;DHT22;56152;49.996;18.980;2023-04-24T17:53:03;12.60;84.80
43647;DHT22;56152;49.996;18.980;2023-04-24T17:58:05;12.60;85.20
43647;DHT22;56152;49.996;18.980;2023-04-24T18:03:08;12.70;85.30
43647;DHT22;56152;49.996;18.980;2023-04-24T18:08:13;12.60;85.50
43647;DHT22;56152;49.996;18.980;2023-04-24T18:13:15;12.60;85.70
43647;DHT22;56152;49.996;18.980;2023-04-24T18:18:18;12.50;85.90
43647;DHT22;56152;49.996;18.980;2023-04-24T18:23:23;12.50;86.20
43647;DHT22;56152;49.996;18.980;2023-04-24T18:28:25;12.40;86.50
43647;DHT22;56152;49.996;18.980;2023-04-24T18:33:31;12.40;87.40
43647;DHT22;56152;49.996;18.980;2023-04-24T18:38:35;12.40;87.00
43647;DHT22;56152;49.996;18.980;2023-04-24T18:43:37;12.40;87.40
43647;DHT22;56152;49.996;18.980;2023-04-24T18:48:40;12.40;87.50
43647;DHT22;56152;49.996;18.980;2023-04-24T18:53:45;12.30;87.60
43647;DHT22;56152;49.996;18.980;2023-04-24T18:58:48;12.30;87.90
43647;DHT22;56152;49.996;18.980;2023-04-24T19:03:52;12.20;88.10
43647;DHT22;56152;49.996;18.980;2023-04-24T19:08:58;12.20;88.40
43647;DHT22;56152;49.996;18.980;2023-04-24T19:14:00;12.10;88.90
43647;DHT22;56152;49.996;18.980;2023-04-24T19:19:05;12.10;89.30
43647;DHT22;56152;49.996;18.980;2023-04-24T19:24:09;12.00;89.70
43647;DHT22;56152;49.996;18.980;2023-04-24T19:29:11;11.90;90.10
43647;DHT22;56152;49.996;18.980;2023-04-24T19:34:13;11.90;90.20
43647;DHT22;56152;49.996;18.980;2023-04-24T19:39:17;11.90;90.30
43647;DHT22;56152;49.996;18.980;2023-04-24T19:44:19;11.90;90.60
43647;DHT22;56152;49.996;18.980;2023-04-24T19:49:25;11.90;90.70
43647;DHT22;56152;49.996;18.980;2023-04-24T19:54:30;11.80;90.90
43647;DHT22;56152;49.996;18.980;2023-04-24T19:59:32;11.80;91.00
43647;DHT22;56152;49.996;18.980;2023-04-24T20:04:34;11.80;91.10
43647;DHT22;56152;49.996;18.980;2023-04-24T20:09:39;11.70;91.20
43647;DHT22;56152;49.996;18.980;2023-04-24T20:14:43;11.60;91.40
43647;DHT22;56152;49.996;18.980;2023-04-24T20:19:48;11.60;91.60
43647;DHT22;56152;49.996;18.980;2023-04-24T20:24:53;11.50;91.90
43647;DHT22;56152;49.996;18.980;2023-04-24T20:29:55;11.40;91.80
43647;DHT22;56152;49.996;18.980;2023-04-24T20:34:58;11.40;91.90
43647;DHT22;56152;49.996;18.980;2023-04-24T20:40:03;11.30;92.00
43647;DHT22;56152;49.996;18.980;2023-04-24T20:45:08;11.20;92.10
43647;DHT22;56152;49.996;18.980;2023-04-24T20:50:14;11.20;92.20
43647;DHT22;56152;49.996;18.980;2023-04-24T20:55:20;11.10;92.20
43647;DHT22;56152;49.996;18.980;2023-04-24T21:00:22;11.10;92.30
43647;DHT22;56152;49.996;18.980;2023-04-24T21:05:25;11.10;92.40
43647;DHT22;56152;49.996;18.980;2023-04-24T21:10:30;11.10;92.50
43647;DHT22;56152;49.996;18.980;2023-04-24T21:15:32;11.10;92.60
43647;DHT22;56152;49.996;18.980;2023-04-24T21:20:35;11.10;92.90
43647;DHT22;56152;49.996;18.980;2023-04-24T21:26:12;11.10;92.70
43647;DHT22;56152;49.996;18.980;2023-04-24T21:31:24;11.00;92.80
43647;DHT22;56152;49.996;18.980;2023-04-24T21:36:27;11.00;92.80
43647;DHT22;56152;49.996;18.980;2023-04-24T21:41:34;11.00;92.90
43647;DHT22;56152;49.996;18.980;2023-04-24T21:46:36;11.00;93.00
43647;DHT22;56152;49.996;18.980;2023-04-24T21:51:39;11.00;93.00
43647;DHT22;56152;49.996;18.980;2023-04-24T21:56:44;11.00;93.10
43647;DHT22;56152;49.996;18.980;2023-04-24T22:01:46;10.90;93.20
43647;DHT22;56152;49.996;18.980;2023-04-24T22:06:49;10.90;93.20
43647;DHT22;56152;49.996;18.980;2023-04-24T22:11:56;10.80;93.20
43647;DHT22;56152;49.996;18.980;2023-04-24T22:16:57;10.80;93.30
43647;DHT22;56152;49.996;18.980;2023-04-24T22:21:59;10.70;93.30
43647;DHT22;56152;49.996;18.980;2023-04-24T22:27:05;10.70;93.30
43647;DHT22;56152;49.996;18.980;2023-04-24T22:32:08;10.60;93.30
43647;DHT22;56152;49.996;18.980;2023-04-24T22:37:10;10.60;93.40
43647;DHT22;56152;49.996;18.980;2023-04-24T22:42:14;10.50;93.40
43647;DHT22;56152;49.996;18.980;2023-04-24T22:47:16;10.50;93.50
43647;DHT22;56152;49.996;18.980;2023-04-24T22:52:19;10.50;93.50
43647;DHT22;56152;49.996;18.980;2023-04-24T22:57:23;10.40;93.50
43647;DHT22;56152;49.996;18.980;2023-04-24T23:02:26;10.40;93.50
43647;DHT22;56152;49.996;18.980;2023-04-24T23:07:29;10.40;93.60
43647;DHT22;56152;49.996;18.980;2023-04-24T23:12:33;10.40;93.60
43647;DHT22;56152;49.996;18.980;2023-04-24T23:17:34;10.30;93.60
43647;DHT22;56152;49.996;18.980;2023-04-24T23:22:37;10.30;93.60
43647;DHT22;56152;49.996;18.980;2023-04-24T23:27:41;10.30;93.90
43647;DHT22;56152;49.996;18.980;2023-04-24T23:32:43;10.30;93.70
43647;DHT22;56152;49.996;18.980;2023-04-24T23:37:45;10.30;93.70
43647;DHT22;56152;49.996;18.980;2023-04-24T23:42:49;10.30;93.80
43647;DHT22;56152;49.996;18.980;2023-04-24T23:47:52;10.30;93.90
43647;DHT22;56152;49.996;18.980;2023-04-24T23:52:55;10.30;93.90
43647;DHT22;56152;49.996;18.980;2023-04-24T23:57:59;10.20;94.20
